Time;durP1;ratioP1;P1;durP2;ratioP2;P2;SDS_P1;SDS_P2;PMS_P1;PMS_P2;Temp;Humidity;BMP_temperature;BMP_pressure;BME280_temperature;BME280_humidity;BME280_pressure;Samples;Min_cycle;Max_cycle;Signal;HPM_P1;HPM_P2
2021/05/13 00:00:18;;;;;;;5.28;2.20;;;11.40;99.90;;;;;;5011096;28;20033;-70
2021/05/13 00:02:43;;;;;;;5.93;2.00;;;11.40;99.90;;;;;;5010827;28;20079;-70
2021/05/13 00:05:10;;;;;;;7.68;2.20;;;11.40;99.90;;;;;;5010871;28;20030;-71
2021/05/13 00:07:36;;;;;;;5.25;2.15;;;11.30;99.90;;;;;;5011276;28;20059;-70
2021/05/13 00:10:03;;;;;;;5.90;2.45;;;11.30;99.90;;;;;;5011057;28;20037;-70
2021/05/13 00:15:05;;;;;;;9.45;2.58;;;11.20;99.90;;;;;;5010972;28;20026;-70
2021/05/13 00:17:31;;;;;;;4.80;2.30;;;11.30;99.90;;;;;;5011195;28;20392;-70
2021/05/13 00:19:57;;;;;;;6.70;2.65;;;11.30;99.90;;;;;;5010860;28;20030;-70
2021/05/13 00:22:24;;;;;;;7.90;2.90;;;11.30;99.90;;;;;;5010689;28;20045;-70
2021/05/13 00:24:50;;;;;;;6.97;3.20;;;11.20;99.90;;;;;;5010773;28;20022;-70
2021/05/13 00:27:16;;;;;;;7.25;3.30;;;11.20;99.90;;;;;;5010820;28;20080;-70
2021/05/13 00:29:41;;;;;;;7.70;3.45;;;11.20;99.90;;;;;;5009601;28;20114;-70
2021/05/13 00:32:07;;;;;;;8.07;4.20;;;11.10;99.90;;;;;;5010498;28;20030;-70
2021/05/13 00:34:32;;;;;;;6.75;3.22;;;11.10;99.90;;;;;;5010720;28;20033;-70
2021/05/13 00:36:57;;;;;;;7.70;3.67;;;11.00;99.90;;;;;;5010998;28;20484;-71
2021/05/13 00:39:23;;;;;;;6.45;3.30;;;11.00;99.90;;;;;;5010984;28;20025;-70
2021/05/13 00:41:49;;;;;;;7.47;3.70;;;11.00;99.90;;;;;;5010542;28;20033;-70
2021/05/13 00:44:14;;;;;;;7.82;4.03;;;11.10;99.90;;;;;;5010647;28;20026;-70
2021/05/13 00:46:40;;;;;;;9.30;5.32;;;11.00;99.90;;;;;;5009498;28;20022;-73
2021/05/13 00:49:09;;;;;;;6.50;3.65;;;11.00;99.90;;;;;;5011508;28;20119;-70
2021/05/13 00:51:36;;;;;;;7.72;4.65;;;11.00;99.90;;;;;;5014533;28;20014;-70
2021/05/13 00:54:01;;;;;;;11.45;5.43;;;11.00;99.90;;;;;;5013351;28;20034;-70
2021/05/13 00:56:28;;;;;;;12.60;6.05;;;11.00;99.90;;;;;;5014819;28;20045;-70
2021/05/13 00:58:57;;;;;;;12.00;6.82;;;11.20;99.90;;;;;;5014571;28;20045;-69
2021/05/13 01:01:24;;;;;;;12.88;7.72;;;11.30;99.90;;;;;;5014211;28;20033;-70
2021/05/13 01:03:50;;;;;;;10.82;7.63;;;11.40;99.90;;;;;;5014309;28;20022;-70
2021/05/13 01:06:16;;;;;;;12.93;7.20;;;11.40;99.90;;;;;;5014272;28;20030;-70
2021/05/13 01:08:42;;;;;;;11.38;6.85;;;11.50;99.90;;;;;;5014358;28;20032;-70
2021/05/13 01:11:10;;;;;;;8.35;5.28;;;11.50;99.90;;;;;;5014096;28;20491;-70
2021/05/13 01:13:53;;;;;;;8.55;5.00;;;11.60;99.90;;;;;;5013748;28;20022;-70
2021/05/13 01:16:53;;;;;;;9.25;4.65;;;11.50;99.90;;;;;;5014027;28;20506;-70
2021/05/13 01:19:10;;;;;;;9.20;4.57;;;11.50;99.90;;;;;;5012610;28;20045;-70
2021/05/13 01:21:39;;;;;;;8.60;5.07;;;11.50;99.90;;;;;;5013676;28;20034;-70
2021/05/13 01:24:06;;;;;;;10.38;4.63;;;11.50;99.90;;;;;;5013616;28;20420;-70
2021/05/13 01:26:31;;;;;;;10.23;5.40;;;11.40;99.90;;;;;;5014006;28;20018;-71
2021/05/13 01:28:59;;;;;;;10.32;5.50;;;11.50;99.90;;;;;;5013913;28;20101;-71
2021/05/13 01:31:24;;;;;;;8.90;5.47;;;11.50;99.90;;;;;;5013484;28;20396;-70
2021/05/13 01:33:50;;;;;;;9.65;5.90;;;11.50;99.90;;;;;;5023607;28;20022;-70
2021/05/13 01:36:15;;;;;;;10.80;6.15;;;11.50;99.90;;;;;;5022069;28;20578;-70
2021/05/13 01:38:41;;;;;;;8.45;4.60;;;11.50;99.90;;;;;;5019285;28;20030;-70
2021/05/13 01:41:07;;;;;;;8.98;4.53;;;11.40;99.90;;;;;;5020686;28;20057;-70
2021/05/13 01:43:32;;;;;;;7.38;4.38;;;11.40;99.90;;;;;;5021643;28;20071;-70
2021/05/13 01:46:00;;;;;;;8.00;4.30;;;11.50;99.90;;;;;;5021753;28;20045;-70
2021/05/13 01:48:26;;;;;;;6.65;3.88;;;11.50;99.90;;;;;;5023132;28;20022;-70
2021/05/13 01:50:52;;;;;;;8.02;4.22;;;11.50;99.90;;;;;;5021921;28;20018;-70
2021/05/13 01:53:18;;;;;;;6.75;4.22;;;11.40;99.90;;;;;;5021010;28;20037;-70
2021/05/13 01:55:44;;;;;;;10.02;5.00;;;11.40;99.90;;;;;;5023512;28;20041;-70
2021/05/13 01:58:10;;;;;;;7.75;4.07;;;11.40;99.90;;;;;;5022612;28;20026;-70
2021/05/13 02:00:36;;;;;;;7.20;4.15;;;11.40;99.90;;;;;;5019756;28;20519;-70
2021/05/13 02:03:04;;;;;;;10.98;4.97;;;11.50;99.90;;;;;;5022310;28;20062;-70
2021/05/13 02:05:30;;;;;;;11.05;4.72;;;11.40;99.90;;;;;;5021732;28;20022;-71
2021/05/13 02:07:56;;;;;;;9.70;4.40;;;11.40;99.90;;;;;;5020650;28;20099;-71
2021/05/13 02:10:21;;;;;;;8.85;4.93;;;11.30;99.90;;;;;;5017944;28;20045;-69
2021/05/13 02:12:48;;;;;;;7.97;4.75;;;11.40;99.90;;;;;;5021560;28;20093;-70
2021/05/13 02:15:16;;;;;;;9.43;5.00;;;11.30;99.90;;;;;;5020878;28;20032;-70
2021/05/13 02:17:42;;;;;;;9.90;5.00;;;11.40;99.90;;;;;;5017734;28;20037;-70
2021/05/13 02:20:10;;;;;;;9.23;5.25;;;11.20;99.90;;;;;;5021554;28;20029;-70
2021/05/13 02:22:36;;;;;;;9.13;5.13;;;11.20;99.90;;;;;;5022086;28;20033;-71
2021/05/13 02:25:03;;;;;;;10.70;5.40;;;11.20;99.90;;;;;;5022321;28;20021;-70
2021/05/13 02:27:29;;;;;;;11.75;5.97;;;11.30;99.90;;;;;;5020783;28;20018;-70
2021/05/13 02:29:54;;;;;;;10.02;6.35;;;11.20;99.90;;;;;;5023768;28;20120;-70
2021/05/13 02:32:20;;;;;;;10.07;6.50;;;11.20;99.90;;;;;;5020641;28;20025;-70
2021/05/13 02:34:45;;;;;;;13.00;7.03;;;11.20;99.90;;;;;;5022901;28;20087;-70
2021/05/13 02:37:11;;;;;;;11.57;6.93;;;11.10;99.90;;;;;;5021877;28;20392;-70
2021/05/13 02:39:36;;;;;;;9.88;6.00;;;11.20;99.90;;;;;;5021205;28;20100;-71
2021/05/13 02:42:02;;;;;;;10.07;6.50;;;11.20;99.90;;;;;;5022534;28;20091;-70
2021/05/13 02:44:28;;;;;;;10.90;6.13;;;11.10;99.90;;;;;;5021127;28;20037;-70
2021/05/13 02:46:53;;;;;;;10.40;6.70;;;11.20;99.90;;;;;;5021308;28;20088;-70
2021/05/13 02:49:19;;;;;;;10.90;5.25;;;11.20;99.90;;;;;;5022637;28;20034;-71
2021/05/13 02:51:44;;;;;;;8.93;5.13;;;11.30;99.90;;;;;;5020515;28;20120;-70
2021/05/13 02:54:10;;;;;;;9.70;5.07;;;11.10;99.90;;;;;;5021475;28;20488;-70
2021/05/13 02:56:35;;;;;;;9.02;4.78;;;11.20;99.90;;;;;;5019943;28;20156;-70
2021/05/13 02:59:01;;;;;;;10.65;4.72;;;11.20;99.90;;;;;;5017150;28;20022;-70
2021/05/13 03:01:29;;;;;;;9.18;4.35;;;11.20;99.90;;;;;;5011794;28;20442;-70
2021/05/13 03:03:56;;;;;;;9.65;4.53;;;11.10;99.90;;;;;;5011917;28;20026;-70
2021/05/13 03:06:23;;;;;;;7.07;4.70;;;11.10;99.90;;;;;;5011820;28;20029;-70
2021/05/13 03:08:53;;;;;;;11.48;4.68;;;11.10;99.90;;;;;;5010530;28;20480;-70
2021/05/13 03:11:18;;;;;;;7.53;4.57;;;11.10;99.90;;;;;;5011396;28;20113;-70
2021/05/13 03:13:45;;;;;;;9.57;4.43;;;11.10;99.90;;;;;;5011653;28;20120;-69
2021/05/13 03:16:10;;;;;;;8.63;5.05;;;11.10;99.90;;;;;;5011757;28;20121;-70
2021/05/13 03:18:36;;;;;;;7.20;4.45;;;11.10;99.90;;;;;;5011792;28;20105;-70
2021/05/13 03:21:17;;;;;;;8.90;4.88;;;11.10;99.90;;;;;;5011834;28;20022;-70
2021/05/13 03:23:57;;;;;;;9.18;5.05;;;11.10;99.90;;;;;;5010251;28;20033;-71
2021/05/13 03:26:54;;;;;;;8.38;5.25;;;11.10;99.90;;;;;;5010271;28;20028;-70
2021/05/13 03:29:20;;;;;;;9.32;5.35;;;11.10;99.90;;;;;;5011570;28;20067;-70
2021/05/13 03:31:45;;;;;;;9.13;5.40;;;11.00;99.90;;;;;;5011307;28;20029;-71
2021/05/13 03:34:11;;;;;;;10.45;5.85;;;10.90;99.90;;;;;;5011493;28;20071;-70
2021/05/13 03:36:36;;;;;;;9.43;5.25;;;11.00;99.90;;;;;;5011361;28;20022;-70
2021/05/13 03:39:08;;;;;;;8.57;4.30;;;11.10;99.90;;;;;;5011405;28;20480;-70
2021/05/13 03:41:34;;;;;;;8.23;4.30;;;11.10;99.90;;;;;;5011222;28;20504;-70
2021/05/13 03:44:00;;;;;;;14.02;4.38;;;11.10;99.90;;;;;;5011167;28;20056;-71
2021/05/13 03:46:26;;;;;;;8.10;4.72;;;11.20;99.90;;;;;;5011108;28;20030;-70
2021/05/13 03:48:52;;;;;;;7.32;4.05;;;11.10;99.90;;;;;;5011286;28;20030;-70
2021/05/13 03:51:17;;;;;;;7.15;3.80;;;11.10;99.90;;;;;;5010051;28;20116;-70
2021/05/13 03:53:44;;;;;;;8.10;3.83;;;11.10;99.90;;;;;;5010394;28;20029;-70
2021/05/13 03:56:11;;;;;;;8.48;3.95;;;11.00;99.90;;;;;;5011616;28;20480;-70
2021/05/13 03:58:41;;;;;;;7.57;3.85;;;11.10;99.90;;;;;;5011441;28;20496;-70
2021/05/13 04:01:11;;;;;;;7.75;4.13;;;11.00;99.90;;;;;;5011342;28;20034;-70
2021/05/13 04:03:37;;;;;;;10.40;5.50;;;11.10;99.90;;;;;;5010944;28;20026;-72
2021/05/13 04:06:03;;;;;;;10.45;4.40;;;11.00;99.90;;;;;;5011125;28;20029;-70
2021/05/13 04:08:29;;;;;;;9.85;5.82;;;10.90;99.90;;;;;;5011122;28;20018;-70
2021/05/13 04:10:55;;;;;;;9.23;5.82;;;10.90;99.90;;;;;;5011031;28;20511;-71
2021/05/13 04:13:20;;;;;;;11.85;6.95;;;10.90;99.90;;;;;;5010658;28;20559;-70
2021/05/13 04:15:47;;;;;;;9.30;5.80;;;10.90;99.90;;;;;;5011000;28;20045;-70
2021/05/13 04:18:13;;;;;;;13.10;7.25;;;10.90;99.90;;;;;;5009680;28;20403;-70
2021/05/13 04:20:43;;;;;;;14.20;6.80;;;10.90;99.90;;;;;;5010935;28;20029;-71
2021/05/13 04:23:09;;;;;;;17.77;7.72;;;10.90;99.90;;;;;;5010935;28;20029;-70
2021/05/13 04:25:35;;;;;;;10.50;6.25;;;10.90;99.90;;;;;;5014837;28;20025;-70
2021/05/13 04:28:01;;;;;;;15.35;5.82;;;11.00;99.90;;;;;;5014869;28;20099;-70
2021/05/13 04:30:26;;;;;;;10.45;6.18;;;10.90;99.90;;;;;;5013538;28;20166;-70
2021/05/13 04:32:52;;;;;;;8.93;5.28;;;10.90;99.90;;;;;;5014935;28;20026;-71
2021/05/13 04:35:17;;;;;;;11.35;5.68;;;10.90;99.90;;;;;;5014670;28;20050;-70
2021/05/13 04:37:43;;;;;;;11.13;6.00;;;10.90;99.90;;;;;;5014733;28;20096;-70
2021/05/13 04:40:09;;;;;;;11.57;6.30;;;10.90;99.90;;;;;;5014696;28;20076;-70
2021/05/13 04:42:35;;;;;;;9.48;6.13;;;11.00;99.90;;;;;;5014276;28;20022;-70
2021/05/13 04:45:01;;;;;;;9.98;6.28;;;11.10;99.90;;;;;;5014474;28;20076;-70
2021/05/13 04:47:52;;;;;;;13.10;7.72;;;11.20;99.90;;;;;;5014418;28;20081;-70
2021/05/13 04:50:18;;;;;;;12.35;6.78;;;11.20;99.90;;;;;;5014462;28;20488;-70
2021/05/13 04:52:44;;;;;;;11.75;7.25;;;11.30;99.90;;;;;;5014138;28;20064;-70
2021/05/13 04:55:10;;;;;;;15.93;9.55;;;11.30;99.90;;;;;;5014468;28;20025;-70
2021/05/13 04:57:37;;;;;;;14.35;8.18;;;11.40;99.90;;;;;;5013111;28;20030;-70
2021/05/13 05:00:06;;;;;;;13.68;8.30;;;11.60;99.90;;;;;;5014180;28;20365;-70
2021/05/13 05:02:31;;;;;;;12.52;8.15;;;11.60;99.90;;;;;;5013846;28;20022;-70
2021/05/13 05:04:57;;;;;;;15.00;8.80;;;11.70;99.90;;;;;;5014066;28;20143;-70
2021/05/13 05:07:22;;;;;;;15.43;9.05;;;11.70;99.90;;;;;;5014555;28;20487;-70
2021/05/13 05:09:48;;;;;;;13.80;8.55;;;11.70;99.90;;;;;;5014050;28;20100;-70
2021/05/13 05:12:14;;;;;;;13.43;8.68;;;11.80;99.90;;;;;;5013755;28;20033;-69
2021/05/13 05:14:40;;;;;;;11.80;7.78;;;12.00;99.90;;;;;;5013866;28;20022;-71
2021/05/13 05:17:06;;;;;;;14.32;9.07;;;12.00;99.90;;;;;;5013905;28;20503;-70
2021/05/13 05:19:32;;;;;;;13.32;8.70;;;12.00;99.90;;;;;;5013771;28;20033;-71
2021/05/13 05:21:57;;;;;;;12.68;8.00;;;11.80;99.90;;;;;;5013555;28;20033;-70
2021/05/13 05:24:23;;;;;;;13.05;7.93;;;11.90;99.90;;;;;;5013640;28;20030;-70
2021/05/13 05:26:48;;;;;;;15.57;8.48;;;11.90;99.90;;;;;;5014718;28;20092;-71
2021/05/13 05:29:14;;;;;;;12.10;6.97;;;12.10;99.90;;;;;;5013670;28;20030;-71
2021/05/13 05:31:39;;;;;;;11.63;6.75;;;12.10;99.90;;;;;;5012064;28;20026;-71
2021/05/13 05:34:05;;;;;;;11.93;7.80;;;12.10;99.90;;;;;;5012240;28;20018;-71
2021/05/13 05:36:31;;;;;;;12.02;7.10;;;12.10;99.90;;;;;;5013544;28;20038;-71
2021/05/13 05:38:58;;;;;;;11.55;7.07;;;12.20;99.90;;;;;;5013643;28;20061;-70
2021/05/13 05:41:24;;;;;;;10.00;6.30;;;12.10;99.90;;;;;;5012000;28;20105;-73
2021/05/13 05:43:49;;;;;;;11.25;6.82;;;12.10;99.90;;;;;;5013334;28;20440;-72
2021/05/13 05:46:15;;;;;;;10.25;6.05;;;12.10;99.90;;;;;;5012145;28;20037;-71
2021/05/13 05:48:40;;;;;;;9.70;5.95;;;12.20;99.90;;;;;;5013339;28;20101;-72
2021/05/13 05:51:06;;;;;;;11.00;6.10;;;12.30;99.90;;;;;;5013435;28;20073;-72
2021/05/13 05:53:32;;;;;;;10.32;6.00;;;12.40;99.90;;;;;;5013340;28;20037;-72
2021/05/13 05:55:57;;;;;;;9.27;5.55;;;12.30;99.90;;;;;;5013360;28;20491;-71
2021/05/13 05:58:23;;;;;;;11.93;6.80;;;12.40;99.90;;;;;;5013270;28;20034;-72
2021/05/13 06:00:49;;;;;;;9.85;6.03;;;12.30;99.90;;;;;;5013258;28;20079;-71
2021/05/13 06:03:14;;;;;;;13.60;7.32;;;12.30;99.90;;;;;;5011593;28;20034;-72
2021/05/13 06:05:40;;;;;;;9.70;6.15;;;12.40;99.90;;;;;;5013056;28;20034;-71
2021/05/13 06:08:05;;;;;;;12.00;7.47;;;12.40;99.90;;;;;;5013168;28;20029;-70
2021/05/13 06:10:32;;;;;;;11.57;6.78;;;12.20;99.90;;;;;;5013055;28;20025;-72
2021/05/13 06:12:58;;;;;;;10.20;6.57;;;12.40;99.90;;;;;;5012627;28;20205;-71
2021/05/13 06:15:24;;;;;;;12.75;7.10;;;12.60;99.90;;;;;;5011737;28;20026;-72
2021/05/13 06:17:50;;;;;;;11.95;7.88;;;12.50;99.90;;;;;;5012890;28;20163;-71
2021/05/13 06:20:23;;;;;;;13.77;8.88;;;12.60;99.90;;;;;;5013125;28;20512;-70
2021/05/13 06:22:48;;;;;;;12.27;7.30;;;12.50;99.90;;;;;;5012498;28;20022;-71
2021/05/13 06:25:15;;;;;;;14.65;8.27;;;12.60;99.90;;;;;;5012480;28;20033;-71
2021/05/13 06:27:41;;;;;;;13.73;7.97;;;12.90;99.90;;;;;;5011517;28;20396;-72
2021/05/13 06:30:07;;;;;;;12.55;8.00;;;13.00;99.90;;;;;;5012658;28;20026;-70
2021/05/13 06:32:32;;;;;;;13.65;8.27;;;13.10;99.90;;;;;;5012229;28;20033;-71
2021/05/13 06:34:58;;;;;;;12.18;8.57;;;12.90;99.90;;;;;;5012516;28;20026;-73
2021/05/13 06:37:23;;;;;;;14.13;7.95;;;12.90;99.90;;;;;;5012467;28;20096;-72
2021/05/13 06:39:49;;;;;;;11.57;7.32;;;12.90;99.90;;;;;;5011112;28;20481;-70
2021/05/13 06:42:16;;;;;;;10.55;7.75;;;13.10;99.90;;;;;;5012012;28;20040;-71
2021/05/13 06:44:41;;;;;;;11.93;8.10;;;13.20;99.90;;;;;;5012106;28;20054;-71
2021/05/13 06:47:07;;;;;;;11.65;7.32;;;13.20;99.90;;;;;;5011717;28;20508;-69
2021/05/13 06:49:33;;;;;;;12.15;7.05;;;13.40;99.90;;;;;;5012225;28;20092;-69
2021/05/13 06:51:59;;;;;;;14.80;7.53;;;13.40;99.90;;;;;;5011961;28;20480;-69
2021/05/13 06:54:24;;;;;;;10.20;7.70;;;13.40;99.90;;;;;;5011970;28;20037;-70
2021/05/13 06:56:52;;;;;;;11.57;6.95;;;13.50;99.90;;;;;;5012096;28;20022;-70
2021/05/13 06:59:18;;;;;;;13.00;6.60;;;13.50;99.90;;;;;;5012094;28;20025;-70
2021/05/13 07:01:43;;;;;;;11.43;6.32;;;13.60;99.90;;;;;;5011827;28;20026;-70
2021/05/13 07:04:09;;;;;;;12.05;6.47;;;13.50;99.90;;;;;;5011865;28;20022;-70
2021/05/13 07:06:36;;;;;;;10.95;6.88;;;13.40;99.90;;;;;;5003458;28;20057;-70
2021/05/13 07:09:06;;;;;;;12.23;8.27;;;13.40;99.90;;;;;;4992170;28;20026;-69
2021/05/13 07:11:32;;;;;;;15.52;8.77;;;13.30;99.90;;;;;;4996426;28;20481;-70
2021/05/13 07:13:57;;;;;;;12.02;7.65;;;13.40;99.90;;;;;;5006952;28;20435;-70
2021/05/13 07:16:23;;;;;;;13.70;7.80;;;13.20;99.90;;;;;;5011682;28;20084;-69
2021/05/13 07:18:52;;;;;;;11.15;7.28;;;13.40;99.90;;;;;;5011697;28;20030;-70
2021/05/13 07:21:18;;;;;;;12.38;7.05;;;13.50;99.90;;;;;;5011173;28;20022;-71
2021/05/13 07:23:44;;;;;;;10.77;6.53;;;13.60;99.90;;;;;;5011537;28;20030;-71
2021/05/13 07:26:10;;;;;;;10.40;6.18;;;13.70;99.90;;;;;;5011596;28;20044;-69
2021/05/13 07:28:37;;;;;;;9.23;6.32;;;13.80;99.90;;;;;;5012094;28;20030;-70
2021/05/13 07:31:03;;;;;;;10.73;7.15;;;13.80;99.90;;;;;;5011922;28;20069;-71
2021/05/13 07:33:29;;;;;;;13.60;7.45;;;13.80;99.90;;;;;;5010016;28;20504;-71
2021/05/13 07:35:54;;;;;;;10.20;6.82;;;13.80;99.90;;;;;;5011823;28;20026;-71
2021/05/13 07:38:20;;;;;;;10.93;7.30;;;13.90;99.90;;;;;;5011475;28;20029;-71
2021/05/13 07:40:46;;;;;;;13.25;7.35;;;14.10;99.90;;;;;;5011528;28;20156;-70
2021/05/13 07:43:11;;;;;;;12.02;7.70;;;14.10;99.90;;;;;;5011139;28;20510;-71
2021/05/13 07:45:42;;;;;;;11.60;7.95;;;14.10;99.90;;;;;;5011335;28;20030;-73
2021/05/13 07:48:08;;;;;;;13.00;7.82;;;14.20;99.90;;;;;;5011571;28;20093;-71
2021/05/13 07:50:34;;;;;;;14.48;8.45;;;14.30;99.90;;;;;;5010012;28;20168;-71
2021/05/13 07:53:00;;;;;;;13.65;8.25;;;14.20;99.90;;;;;;5010875;28;20030;-71
2021/05/13 07:55:25;;;;;;;14.32;8.57;;;14.20;99.90;;;;;;5011291;28;20030;-72
2021/05/13 07:57:51;;;;;;;11.57;8.57;;;14.20;99.90;;;;;;5009069;28;20028;-72
2021/05/13 08:00:17;;;;;;;14.10;9.65;;;14.20;99.90;;;;;;5011075;28;20424;-71
2021/05/13 08:02:43;;;;;;;11.55;8.70;;;14.30;99.90;;;;;;5009707;28;20026;-72
2021/05/13 08:05:09;;;;;;;14.23;8.52;;;14.40;99.90;;;;;;5011066;28;20033;-72
2021/05/13 08:07:35;;;;;;;14.43;9.20;;;14.40;99.90;;;;;;5010126;28;20488;-72
2021/05/13 08:10:01;;;;;;;15.63;9.57;;;14.40;99.90;;;;;;5010432;28;20072;-72
2021/05/13 08:12:27;;;;;;;15.00;9.25;;;14.50;99.90;;;;;;5010946;28;20030;-71
2021/05/13 08:14:52;;;;;;;16.48;9.63;;;14.50;99.90;;;;;;5010995;28;20026;-71
2021/05/13 08:17:18;;;;;;;13.65;9.02;;;14.50;99.90;;;;;;5009819;28;20400;-72
2021/05/13 08:19:44;;;;;;;13.50;8.52;;;14.60;99.90;;;;;;5011006;28;20030;-72
2021/05/13 08:22:09;;;;;;;11.55;8.55;;;14.50;99.90;;;;;;5009389;28;20623;-72
2021/05/13 08:24:35;;;;;;;14.88;9.73;;;14.60;99.90;;;;;;5010797;28;20037;-72
2021/05/13 08:27:03;;;;;;;14.43;8.45;;;14.70;99.90;;;;;;5011041;28;20156;-72
2021/05/13 08:29:30;;;;;;;13.85;8.52;;;14.60;99.90;;;;;;5010901;28;20030;-72
2021/05/13 08:31:56;;;;;;;13.07;8.02;;;14.70;99.90;;;;;;5009371;28;20423;-71
2021/05/13 08:34:22;;;;;;;13.27;8.98;;;14.90;99.90;;;;;;5011208;28;20033;-72
2021/05/13 08:36:48;;;;;;;14.20;8.68;;;15.00;99.90;;;;;;5010651;28;20026;-72
2021/05/13 08:39:13;;;;;;;13.88;8.30;;;14.90;99.90;;;;;;5010741;28;20500;-72
2021/05/13 08:41:39;;;;;;;16.38;8.73;;;14.90;99.90;;;;;;5010490;28;20100;-71
2021/05/13 08:44:09;;;;;;;15.88;8.30;;;14.60;99.90;;;;;;5010661;28;20033;-71
2021/05/13 08:46:39;;;;;;;15.27;8.05;;;14.60;99.90;;;;;;5010688;28;20029;-73
2021/05/13 08:49:06;;;;;;;14.23;8.10;;;14.50;99.90;;;;;;5011199;28;20026;-71
2021/05/13 08:51:32;;;;;;;14.57;8.70;;;14.70;99.90;;;;;;5009092;28;20030;-72
2021/05/13 08:53:58;;;;;;;12.98;8.00;;;14.90;99.90;;;;;;5010437;28;20033;-73
2021/05/13 08:56:27;;;;;;;13.52;8.25;;;15.00;99.90;;;;;;5010694;28;20204;-73
2021/05/13 08:58:53;;;;;;;10.32;7.50;;;15.00;99.90;;;;;;5010597;28;20057;-74
2021/05/13 09:01:24;;;;;;;14.50;7.38;;;15.00;99.90;;;;;;5010718;28;20072;-71
2021/05/13 09:03:51;;;;;;;12.43;6.65;;;15.20;99.90;;;;;;5010461;28;20104;-76
2021/05/13 09:06:29;;;;;;;12.52;6.78;;;15.10;99.90;;;;;;5009201;28;20029;-72
2021/05/13 09:09:19;;;;;;;11.10;5.70;;;15.30;99.90;;;;;;5010675;28;20038;-71
2021/05/13 09:11:53;;;;;;;12.63;5.85;;;15.30;99.70;;;;;;5011052;28;20104;-72
2021/05/13 09:14:30;;;;;;;10.32;4.78;;;15.20;99.80;;;;;;5014093;28;20025;-71
2021/05/13 09:16:57;;;;;;;11.23;5.22;;;15.10;99.00;;;;;;5014050;28;20022;-71
2021/05/13 09:19:28;;;;;;;10.25;5.22;;;15.20;99.90;;;;;;5014003;28;20030;-72
2021/05/13 09:22:07;;;;;;;7.47;4.70;;;15.40;99.90;;;;;;5012490;28;20436;-72
2021/05/13 09:24:43;;;;;;;10.68;4.82;;;15.50;99.50;;;;;;5013733;28;20029;-72
2021/05/13 09:27:40;;;;;;;8.85;4.38;;;15.70;99.30;;;;;;5013879;28;20025;-71
2021/05/13 09:30:17;;;;;;;5.85;3.13;;;15.80;99.10;;;;;;5012470;28;20018;-72
2021/05/13 09:32:47;;;;;;;7.88;3.10;;;15.80;98.30;;;;;;5012462;28;20022;-71
2021/05/13 09:35:18;;;;;;;7.53;2.80;;;15.90;97.80;;;;;;5013799;28;20030;-72
2021/05/13 09:37:45;;;;;;;;;;;15.90;97.50;;;;;;5014140;28;20022;-71
2021/05/13 09:40:12;;;;;;;9.05;2.72;;;15.90;97.00;;;;;;5013669;28;20132;-70
2021/05/13 09:42:38;;;;;;;4.82;2.22;;;15.80;97.00;;;;;;5013234;28;20030;-71
2021/05/13 09:45:08;;;;;;;5.97;2.53;;;15.70;96.50;;;;;;5013402;28;20050;-72
2021/05/13 09:47:35;;;;;;;8.13;2.70;;;15.40;97.10;;;;;;5012077;28;20029;-71
2021/05/13 09:50:11;;;;;;;8.05;3.08;;;15.30;97.30;;;;;;5013461;28;20022;-73
2021/05/13 09:52:40;;;;;;;7.13;3.05;;;15.40;98.10;;;;;;5013015;28;20104;-71
2021/05/13 09:55:22;;;;;;;9.40;3.10;;;15.30;97.40;;;;;;5013107;28;20042;-71
2021/05/13 09:57:48;;;;;;;9.02;3.45;;;15.40;98.30;;;;;;5013217;28;20434;-72
2021/05/13 10:00:33;;;;;;;7.97;2.92;;;15.30;97.90;;;;;;5013224;28;20109;-71
2021/05/13 10:02:59;;;;;;;7.40;3.47;;;15.40;98.10;;;;;;5012809;28;20503;-72
2021/05/13 10:05:25;;;;;;;9.10;3.08;;;15.50;97.30;;;;;;5013097;28;20036;-71
2021/05/13 10:07:52;;;;;;;5.55;2.70;;;15.40;97.70;;;;;;5013025;28;20041;-70
2021/05/13 10:10:17;;;;;;;5.25;2.80;;;15.30;97.40;;;;;;5011639;28;20033;-71
2021/05/13 10:12:44;;;;;;;6.63;2.90;;;15.50;98.60;;;;;;5012605;28;20018;-70
2021/05/13 10:15:11;;;;;;;5.55;2.80;;;15.70;98.30;;;;;;5012817;28;20033;-70
2021/05/13 10:17:41;;;;;;;7.13;3.20;;;15.50;98.00;;;;;;5012843;28;20026;-70
2021/05/13 10:20:08;;;;;;;10.07;2.70;;;15.40;98.10;;;;;;5012926;28;20077;-72
2021/05/13 10:22:35;;;;;;;7.20;3.08;;;15.40;98.30;;;;;;5011677;28;20550;-70
2021/05/13 10:25:25;;;;;;;8.38;2.85;;;15.50;98.60;;;;;;5011313;28;20033;-70
2021/05/13 10:28:02;;;;;;;6.25;2.78;;;15.80;98.40;;;;;;5012828;28;20101;-69
2021/05/13 10:30:33;;;;;;;7.50;3.42;;;15.90;97.30;;;;;;5012693;28;20029;-70
2021/05/13 10:33:12;;;;;;;6.32;2.90;;;15.80;97.30;;;;;;5012211;28;20018;-70
2021/05/13 10:35:39;;;;;;;6.13;2.35;;;15.80;97.60;;;;;;5011079;28;20030;-71
2021/05/13 10:38:11;;;;;;;9.00;2.80;;;15.60;97.40;;;;;;5012554;28;20392;-72
2021/05/13 10:43:11;;;;;;;8.02;3.20;;;15.70;97.30;;;;;;5012179;28;20026;-69
2021/05/13 10:45:44;;;;;;;6.22;2.67;;;15.70;97.70;;;;;;5012314;28;20388;-70
2021/05/13 10:48:37;;;;;;;8.45;2.80;;;15.70;97.20;;;;;;5012329;28;20079;-68
2021/05/13 10:51:08;;;;;;;10.70;3.45;;;15.60;97.10;;;;;;5012298;28;20014;-69
2021/05/13 10:53:45;;;;;;;6.07;2.92;;;15.60;97.40;;;;;;5011879;28;20052;-69
2021/05/13 10:56:11;;;;;;;5.80;2.65;;;15.60;98.10;;;;;;5012234;28;20476;-70
2021/05/13 10:59:08;;;;;;;6.97;3.05;;;15.70;97.70;;;;;;5012272;28;20025;-70
2021/05/13 11:01:50;;;;;;;6.25;3.17;;;15.70;98.00;;;;;;5012045;28;20440;-70
2021/05/13 11:06:54;;;;;;;7.82;2.55;;;15.90;98.10;;;;;;5011971;28;20076;-71
2021/05/13 11:09:47;;;;;;;4.75;1.73;;;15.90;97.60;;;;;;5012196;28;20148;-70
2021/05/13 11:12:55;;;;;;;5.13;1.67;;;16.10;97.00;;;;;;5010538;28;20018;-70
2021/05/13 11:15:27;;;;;;;5.20;1.77;;;16.20;95.80;;;;;;5011080;28;20057;-70
2021/05/13 11:17:55;;;;;;;4.60;1.40;;;16.30;95.30;;;;;;5012004;28;20052;-71
2021/05/13 11:20:44;;;;;;;3.67;1.20;;;16.20;95.80;;;;;;5011872;28;20026;-71
2021/05/13 11:23:14;;;;;;;2.88;0.80;;;16.20;95.80;;;;;;5011414;28;20030;-70
2021/05/13 11:25:51;;;;;;;3.37;1.10;;;16.20;95.50;;;;;;5010834;28;20123;-70
2021/05/13 11:28:27;;;;;;;6.00;1.52;;;16.20;96.40;;;;;;5011736;28;20175;-70
2021/05/13 11:31:04;;;;;;;7.75;2.50;;;16.10;97.60;;;;;;5011623;28;20061;-71
2021/05/13 11:33:40;;;;;;;3.70;0.88;;;16.10;96.70;;;;;;5009863;28;20073;-71
2021/05/13 11:36:08;;;;;;;7.15;1.75;;;16.20;95.40;;;;;;5011578;28;20021;-70
2021/05/13 11:38:33;;;;;;;4.30;1.27;;;16.30;97.00;;;;;;5011534;28;20022;-71
2021/05/13 11:41:00;;;;;;;3.15;0.80;;;16.40;97.40;;;;;;5011492;28;20112;-71
2021/05/13 11:43:28;;;;;;;7.20;1.90;;;16.50;96.20;;;;;;5009951;28;20021;-69
2021/05/13 11:45:57;;;;;;;6.00;1.20;;;16.40;95.30;;;;;;5011300;28;20061;-71
2021/05/13 11:48:28;;;;;;;6.13;3.28;;;16.40;95.80;;;;;;5011221;28;20018;-71
2021/05/13 11:50:57;;;;;;;10.20;5.18;;;16.60;94.70;;;;;;5010165;28;20061;-71
2021/05/13 11:53:23;;;;;;;18.98;5.03;;;16.70;96.30;;;;;;5011165;28;20365;-70
2021/05/13 11:55:50;;;;;;;7.70;1.40;;;16.80;95.30;;;;;;5011250;28;20026;-70
2021/05/13 11:58:51;;;;;;;3.28;0.95;;;16.90;95.40;;;;;;5011219;28;20049;-70
2021/05/13 12:01:19;;;;;;;3.22;0.95;;;16.90;95.70;;;;;;5010922;28;20489;-70
2021/05/13 12:03:46;;;;;;;5.15;1.70;;;17.00;94.10;;;;;;5011058;28;20080;-70
2021/05/13 12:06:12;;;;;;;5.80;2.60;;;17.00;94.40;;;;;;5011120;28;20022;-70
2021/05/13 12:08:38;;;;;;;4.70;1.58;;;16.80;94.80;;;;;;5011142;28;20022;-71
2021/05/13 12:11:37;;;;;;;4.97;1.27;;;16.80;95.60;;;;;;5011047;28;20103;-69
2021/05/13 12:14:07;;;;;;;6.28;1.40;;;16.90;95.60;;;;;;4988952;28;20042;-71
2021/05/13 12:16:32;;;;;;;5.03;0.95;;;17.00;94.20;;;;;;4989091;28;20034;-71
2021/05/13 12:19:05;;;;;;;9.80;1.90;;;17.00;94.50;;;;;;4988991;28;20290;-70
2021/05/13 12:21:35;;;;;;;4.60;1.40;;;17.00;94.90;;;;;;4988774;28;20030;-71
2021/05/13 12:24:01;;;;;;;4.85;1.20;;;17.10;96.10;;;;;;4972549;28;20042;-71
2021/05/13 12:26:31;;;;;;;5.93;1.55;;;17.10;95.50;;;;;;4988855;28;20061;-71
2021/05/13 12:28:57;;;;;;;4.10;1.25;;;17.20;94.80;;;;;;4988950;28;20540;-71
2021/05/13 12:31:24;;;;;;;2.78;1.05;;;17.20;95.00;;;;;;4988632;28;20133;-73
2021/05/13 12:33:49;;;;;;;2.78;1.00;;;17.30;94.90;;;;;;4988874;28;20018;-72
2021/05/13 12:36:15;;;;;;;3.17;1.20;;;17.30;95.90;;;;;;4988826;28;20089;-70
2021/05/13 12:38:42;;;;;;;3.53;0.98;;;17.20;93.80;;;;;;4988963;28;20069;-73
2021/05/13 12:41:10;;;;;;;4.68;1.45;;;17.20;93.50;;;;;;4988948;28;20030;-70
2021/05/13 12:43:37;;;;;;;4.00;1.27;;;17.10;94.20;;;;;;4988602;28;20041;-70
2021/05/13 12:46:23;;;;;;;6.93;1.88;;;17.00;95.60;;;;;;4992134;28;20559;-70
2021/05/13 12:48:50;;;;;;;4.88;1.30;;;17.20;95.10;;;;;;4996347;28;20117;-70
2021/05/13 12:51:18;;;;;;;5.32;1.67;;;17.20;94.00;;;;;;5014520;28;20021;-69
2021/05/13 12:53:57;;;;;;;5.47;1.25;;;17.20;96.20;;;;;;5014484;28;20084;-69
2021/05/13 12:56:22;;;;;;;3.50;1.30;;;16.90;96.80;;;;;;5014658;28;20026;-70